Terminal Aerodrome Forecast
Issued by NWS

Home | Current Version | Previous Version | Text Only | Print | Product List | Glossary On
Versions: 1 2 3 4 5 6 7 8 9 10 11 12 13 14 15 16 17 18 19 20 21 22 23 24
000
FTUS46 KLOX 181438 AAA
TAFLAX
TAF AMD
KLAX 181438Z 1815/1918 13004KT P6SM FEW008 FEW160 SCT250
     FM181900 26012KT P6SM SCT200
     FM190300 VRB03KT P6SM SKC
     FM190700 VRB03KT 2SM BR OVC004
     FM191400 VRB03KT 3SM BR OVC006=

USA.gov is the U.S. government's official web portal to all federal, state and local government web resources and services.